sensor_id;sensor_type;location;lat;lon;timestamp;pressure;altitude;pressure_sealevel;temperature;humidity
56582;BME280;42463;52.214;21.238;2024-01-27T00:01:52;100079.83;;;2.97;79.52
56582;BME280;42463;52.214;21.238;2024-01-27T00:04:34;100085.05;;;3.00;79.90
56582;BME280;42463;52.214;21.238;2024-01-27T00:07:12;100086.42;;;3.06;80.48
56582;BME280;42463;52.214;21.238;2024-01-27T00:09:47;100095.69;;;3.11;81.11
56582;BME280;42463;52.214;21.238;2024-01-27T00:12:23;100096.87;;;3.18;82.01
56582;BME280;42463;52.214;21.238;2024-01-27T00:14:57;100104.21;;;3.25;82.53
56582;BME280;42463;52.214;21.238;2024-01-27T00:17:33;100106.94;;;3.32;83.01
56582;BME280;42463;52.214;21.238;2024-01-27T00:20:11;100109.88;;;3.39;83.33
56582;BME280;42463;52.214;21.238;2024-01-27T00:22:46;100117.22;;;3.45;83.65
56582;BME280;42463;52.214;21.238;2024-01-27T00:25:18;100125.15;;;3.51;83.95
56582;BME280;42463;52.214;21.238;2024-01-27T00:27:53;100127.69;;;3.54;84.31
56582;BME280;42463;52.214;21.238;2024-01-27T00:30:28;100132.88;;;3.61;84.20
56582;BME280;42463;52.214;21.238;2024-01-27T00:33:03;100141.35;;;3.67;84.64
56582;BME280;42463;52.214;21.238;2024-01-27T00:35:43;100145.77;;;3.71;85.08
56582;BME280;42463;52.214;21.238;2024-01-27T00:38:18;100152.61;;;3.74;84.94
56582;BME280;42463;52.214;21.238;2024-01-27T00:43:48;100163.65;;;3.83;84.66
56582;BME280;42463;52.214;21.238;2024-01-27T00:46:20;100165.73;;;3.86;84.71
56582;BME280;42463;52.214;21.238;2024-01-27T00:48:56;100172.30;;;3.88;84.51
56582;BME280;42463;52.214;21.238;2024-01-27T00:51:30;100178.46;;;3.90;84.47
56582;BME280;42463;52.214;21.238;2024-01-27T00:54:04;100182.17;;;3.92;84.41
56582;BME280;42463;52.214;21.238;2024-01-27T00:56:38;100194.76;;;3.94;84.25
56582;BME280;42463;52.214;21.238;2024-01-27T00:59:12;100198.70;;;3.96;84.14
56582;BME280;42463;52.214;21.238;2024-01-27T01:01:47;100201.91;;;3.99;84.06
56582;BME280;42463;52.214;21.238;2024-01-27T01:04:22;100210.31;;;4.01;83.95
56582;BME280;42463;52.214;21.238;2024-01-27T01:06:56;100215.62;;;4.04;83.84
56582;BME280;42463;52.214;21.238;2024-01-27T01:09:30;100217.75;;;4.07;83.70
56582;BME280;42463;52.214;21.238;2024-01-27T01:12:07;100222.20;;;4.08;83.75
56582;BME280;42463;52.214;21.238;2024-01-27T01:14:42;100227.15;;;4.09;83.58
56582;BME280;42463;52.214;21.238;2024-01-27T01:17:18;100224.48;;;4.07;83.64
56582;BME280;42463;52.214;21.238;2024-01-27T01:19:53;100234.55;;;4.07;83.54
56582;BME280;42463;52.214;21.238;2024-01-27T01:22:25;100234.68;;;4.06;83.30
56582;BME280;42463;52.214;21.238;2024-01-27T01:25:00;100240.84;;;4.05;83.35
56582;BME280;42463;52.214;21.238;2024-01-27T01:27:34;100242.65;;;4.06;83.17
56582;BME280;42463;52.214;21.238;2024-01-27T01:30:16;100245.11;;;4.09;83.02
56582;BME280;42463;52.214;21.238;2024-01-27T01:32:50;100248.20;;;4.10;82.95
56582;BME280;42463;52.214;21.238;2024-01-27T01:35:25;100246.39;;;4.10;82.79
56582;BME280;42463;52.214;21.238;2024-01-27T01:37:57;100252.20;;;4.11;82.96
56582;BME280;42463;52.214;21.238;2024-01-27T01:40:31;100252.90;;;4.13;82.69
56582;BME280;42463;52.214;21.238;2024-01-27T01:43:10;100253.55;;;4.14;82.56
56582;BME280;42463;52.214;21.238;2024-01-27T01:45:44;100253.58;;;4.15;82.41
56582;BME280;42463;52.214;21.238;2024-01-27T01:48:19;100254.24;;;4.15;82.30
56582;BME280;42463;52.214;21.238;2024-01-27T01:50:56;100258.08;;;4.15;82.17
56582;BME280;42463;52.214;21.238;2024-01-27T01:53:33;100259.95;;;4.16;82.07
56582;BME280;42463;52.214;21.238;2024-01-27T01:56:08;100261.77;;;4.14;81.78
56582;BME280;42463;52.214;21.238;2024-01-27T01:58:44;100261.82;;;4.11;81.60
56582;BME280;42463;52.214;21.238;2024-01-27T02:01:54;100265.10;;;4.08;81.29
56582;BME280;42463;52.214;21.238;2024-01-27T02:04:29;100266.73;;;4.06;81.36
56582;BME280;42463;52.214;21.238;2024-01-27T02:07:13;100272.98;;;4.03;80.89
56582;BME280;42463;52.214;21.238;2024-01-27T02:09:48;100275.86;;;4.06;80.83
56582;BME280;42463;52.214;21.238;2024-01-27T02:12:23;100274.56;;;4.09;80.83
56582;BME280;42463;52.214;21.238;2024-01-27T02:14:57;100285.83;;;4.10;80.81
56582;BME280;42463;52.214;21.238;2024-01-27T02:17:30;100286.31;;;4.12;80.79
56582;BME280;42463;52.214;21.238;2024-01-27T02:20:06;100293.04;;;4.13;80.66
56582;BME280;42463;52.214;21.238;2024-01-27T02:22:44;100297.13;;;4.15;80.71
56582;BME280;42463;52.214;21.238;2024-01-27T02:25:21;100304.06;;;4.18;80.40
56582;BME280;42463;52.214;21.238;2024-01-27T02:27:56;100305.14;;;4.19;80.32
56582;BME280;42463;52.214;21.238;2024-01-27T02:30:32;100301.40;;;4.22;80.26
56582;BME280;42463;52.214;21.238;2024-01-27T02:33:10;100302.42;;;4.24;80.03
56582;BME280;42463;52.214;21.238;2024-01-27T02:35:45;100301.72;;;4.25;80.07
56582;BME280;42463;52.214;21.238;2024-01-27T02:38:20;100306.63;;;4.27;79.91
56582;BME280;42463;52.214;21.238;2024-01-27T02:40:55;100307.77;;;4.27;79.74
56582;BME280;42463;52.214;21.238;2024-01-27T02:43:29;100312.63;;;4.30;79.75
56582;BME280;42463;52.214;21.238;2024-01-27T02:46:03;100314.41;;;4.30;79.53
56582;BME280;42463;52.214;21.238;2024-01-27T02:48:39;100314.04;;;4.30;79.62
56582;BME280;42463;52.214;21.238;2024-01-27T02:51:12;100321.35;;;4.30;79.47
56582;BME280;42463;52.214;21.238;2024-01-27T02:53:47;100324.23;;;4.30;79.26
56582;BME280;42463;52.214;21.238;2024-01-27T02:56:21;100333.36;;;4.33;79.44
56582;BME280;42463;52.214;21.238;2024-01-27T02:58:55;100328.13;;;4.35;79.26
56582;BME280;42463;52.214;21.238;2024-01-27T03:01:30;100327.35;;;4.34;79.23
56582;BME280;42463;52.214;21.238;2024-01-27T03:04:05;100332.12;;;4.32;79.11
56582;BME280;42463;52.214;21.238;2024-01-27T03:06:37;100335.02;;;4.30;79.04
56582;BME280;42463;52.214;21.238;2024-01-27T03:09:11;100335.41;;;4.27;79.10
56582;BME280;42463;52.214;21.238;2024-01-27T03:11:48;100336.56;;;4.29;79.18
56582;BME280;42463;52.214;21.238;2024-01-27T03:14:22;100344.94;;;4.30;79.08
56582;BME280;42463;52.214;21.238;2024-01-27T03:16:57;100345.88;;;4.32;78.91
56582;BME280;42463;52.214;21.238;2024-01-27T03:19:32;100342.27;;;4.34;78.77
56582;BME280;42463;52.214;21.238;2024-01-27T03:22:06;100347.44;;;4.34;78.57
56582;BME280;42463;52.214;21.238;2024-01-27T03:24:43;100345.27;;;4.37;78.74
56582;BME280;42463;52.214;21.238;2024-01-27T03:27:17;100348.40;;;4.39;78.50
56582;BME280;42463;52.214;21.238;2024-01-27T03:29:51;100350.38;;;4.40;78.57
56582;BME280;42463;52.214;21.238;2024-01-27T03:32:23;100350.29;;;4.40;78.21
56582;BME280;42463;52.214;21.238;2024-01-27T03:34:57;100349.30;;;4.39;78.28
56582;BME280;42463;52.214;21.238;2024-01-27T03:37:30;100359.27;;;4.39;78.04
56582;BME280;42463;52.214;21.238;2024-01-27T03:40:05;100364.55;;;4.40;78.33
56582;BME280;42463;52.214;21.238;2024-01-27T03:42:40;100360.95;;;4.40;77.81
56582;BME280;42463;52.214;21.238;2024-01-27T03:45:14;100361.87;;;4.40;77.85
56582;BME280;42463;52.214;21.238;2024-01-27T03:47:48;100359.00;;;4.41;77.58
56582;BME280;42463;52.214;21.238;2024-01-27T03:50:23;100366.92;;;4.43;77.68
56582;BME280;42463;52.214;21.238;2024-01-27T03:52:58;100362.69;;;4.48;77.75
56582;BME280;42463;52.214;21.238;2024-01-27T03:55:33;100365.64;;;4.51;77.41
56582;BME280;42463;52.214;21.238;2024-01-27T03:58:07;100371.86;;;4.54;77.58
56582;BME280;42463;52.214;21.238;2024-01-27T04:00:42;100370.91;;;4.56;77.16
56582;BME280;42463;52.214;21.238;2024-01-27T04:03:16;100374.87;;;4.56;77.09
56582;BME280;42463;52.214;21.238;2024-01-27T04:05:51;100376.38;;;4.52;76.82
56582;BME280;42463;52.214;21.238;2024-01-27T04:08:26;100377.80;;;4.50;76.81
56582;BME280;42463;52.214;21.238;2024-01-27T04:11:02;100385.21;;;4.47;76.78
56582;BME280;42463;52.214;21.238;2024-01-27T04:13:37;100387.94;;;4.46;76.87
56582;BME280;42463;52.214;21.238;2024-01-27T04:16:12;100383.67;;;4.47;76.79
56582;BME280;42463;52.214;21.238;2024-01-27T04:18:47;100382.48;;;4.48;76.70
56582;BME280;42463;52.214;21.238;2024-01-27T04:21:22;100387.95;;;4.46;76.49
56582;BME280;42463;52.214;21.238;2024-01-27T04:23:57;100389.23;;;4.43;76.50
56582;BME280;42463;52.214;21.238;2024-01-27T04:26:29;100388.05;;;4.40;76.55
56582;BME280;42463;52.214;21.238;2024-01-27T04:29:04;100394.76;;;4.39;76.49
56582;BME280;42463;52.214;21.238;2024-01-27T04:31:43;100394.94;;;4.35;76.53
56582;BME280;42463;52.214;21.238;2024-01-27T04:34:17;100401.56;;;4.34;76.59
56582;BME280;42463;52.214;21.238;2024-01-27T04:36:52;100400.06;;;4.35;76.68
56582;BME280;42463;52.214;21.238;2024-01-27T04:39:24;100399.32;;;4.36;76.88
56582;BME280;42463;52.214;21.238;2024-01-27T04:41:59;100397.93;;;4.33;76.80
56582;BME280;42463;52.214;21.238;2024-01-27T04:44:34;100398.81;;;4.29;76.84
56582;BME280;42463;52.214;21.238;2024-01-27T04:47:10;100403.29;;;4.28;76.79
56582;BME280;42463;52.214;21.238;2024-01-27T04:49:47;100411.01;;;4.28;76.94
56582;BME280;42463;52.214;21.238;2024-01-27T04:52:22;100404.23;;;4.26;76.96
56582;BME280;42463;52.214;21.238;2024-01-27T04:54:57;100411.02;;;4.26;76.84
56582;BME280;42463;52.214;21.238;2024-01-27T04:57:34;100412.24;;;4.28;76.94
56582;BME280;42463;52.214;21.238;2024-01-27T05:00:12;100417.71;;;4.25;76.73
56582;BME280;42463;52.214;21.238;2024-01-27T05:02:47;100420.53;;;4.22;76.74
56582;BME280;42463;52.214;21.238;2024-01-27T05:05:23;100421.11;;;4.21;76.78
56582;BME280;42463;52.214;21.238;2024-01-27T05:07:58;100416.41;;;4.19;76.93
56582;BME280;42463;52.214;21.238;2024-01-27T05:10:33;100423.64;;;4.21;76.79
56582;BME280;42463;52.214;21.238;2024-01-27T05:13:07;100427.30;;;4.23;77.03
56582;BME280;42463;52.214;21.238;2024-01-27T05:15:42;100425.73;;;4.25;76.91
56582;BME280;42463;52.214;21.238;2024-01-27T05:18:17;100431.09;;;4.26;76.80
56582;BME280;42463;52.214;21.238;2024-01-27T05:20:49;100433.39;;;4.30;76.80
56582;BME280;42463;52.214;21.238;2024-01-27T05:23:24;100430.84;;;4.29;76.78
56582;BME280;42463;52.214;21.238;2024-01-27T05:25:58;100432.23;;;4.31;76.97
56582;BME280;42463;52.214;21.238;2024-01-27T05:28:31;100427.06;;;4.31;76.84
56582;BME280;42463;52.214;21.238;2024-01-27T05:31:10;100432.21;;;4.26;76.93
56582;BME280;42463;52.214;21.238;2024-01-27T05:33:45;100437.84;;;4.24;77.10
56582;BME280;42463;52.214;21.238;2024-01-27T05:36:20;100431.69;;;4.22;77.16
56582;BME280;42463;52.214;21.238;2024-01-27T05:38:54;100427.65;;;4.19;77.19
56582;BME280;42463;52.214;21.238;2024-01-27T05:41:31;100424.13;;;4.15;77.30
56582;BME280;42463;52.214;21.238;2024-01-27T05:44:06;100424.71;;;4.12;77.50
56582;BME280;42463;52.214;21.238;2024-01-27T05:47:00;100430.08;;;4.11;77.62
56582;BME280;42463;52.214;21.238;2024-01-27T05:49:34;100429.58;;;4.13;77.60
56582;BME280;42463;52.214;21.238;2024-01-27T05:52:10;100429.58;;;4.15;77.71
56582;BME280;42463;52.214;21.238;2024-01-27T05:54:46;100427.80;;;4.15;77.90
56582;BME280;42463;52.214;21.238;2024-01-27T05:57:24;100428.75;;;4.14;77.96
56582;BME280;42463;52.214;21.238;2024-01-27T05:59:59;100425.05;;;4.09;78.37
56582;BME280;42463;52.214;21.238;2024-01-27T06:02:34;100425.57;;;4.04;78.49
56582;BME280;42463;52.214;21.238;2024-01-27T06:05:10;100430.16;;;4.00;78.49
56582;BME280;42463;52.214;21.238;2024-01-27T06:07:47;100430.11;;;4.02;78.64
56582;BME280;42463;52.214;21.238;2024-01-27T06:10:23;100435.84;;;4.05;78.80
56582;BME280;42463;52.214;21.238;2024-01-27T06:12:57;100431.48;;;4.04;78.46
56582;BME280;42463;52.214;21.238;2024-01-27T06:15:32;100434.11;;;4.03;78.69
56582;BME280;42463;52.214;21.238;2024-01-27T06:18:08;100437.55;;;4.03;78.80
56582;BME280;42463;52.214;21.238;2024-01-27T06:20:43;100437.38;;;4.04;78.93
56582;BME280;42463;52.214;21.238;2024-01-27T06:23:17;100440.91;;;4.08;79.13
56582;BME280;42463;52.214;21.238;2024-01-27T06:25:54;100436.08;;;4.08;78.90
56582;BME280;42463;52.214;21.238;2024-01-27T06:28:29;100440.13;;;4.06;78.95
56582;BME280;42463;52.214;21.238;2024-01-27T06:31:06;100441.91;;;4.03;78.86
56582;BME280;42463;52.214;21.238;2024-01-27T06:33:41;100442.95;;;4.02;79.14
56582;BME280;42463;52.214;21.238;2024-01-27T06:36:16;100446.38;;;4.02;79.00
56582;BME280;42463;52.214;21.238;2024-01-27T06:38:49;100444.98;;;4.01;78.90
56582;BME280;42463;52.214;21.238;2024-01-27T06:41:24;100454.07;;;4.01;79.09
56582;BME280;42463;52.214;21.238;2024-01-27T06:43:59;100450.14;;;4.03;79.32
56582;BME280;42463;52.214;21.238;2024-01-27T06:46:36;100456.79;;;4.02;79.08
56582;BME280;42463;52.214;21.238;2024-01-27T06:49:13;100456.89;;;3.97;79.12
56582;BME280;42463;52.214;21.238;2024-01-27T06:51:47;100459.13;;;3.94;79.20
56582;BME280;42463;52.214;21.238;2024-01-27T06:54:22;100456.36;;;3.92;78.95
56582;BME280;42463;52.214;21.238;2024-01-27T06:56:58;100455.13;;;3.89;79.20
56582;BME280;42463;52.214;21.238;2024-01-27T06:59:34;100458.05;;;3.90;79.38
56582;BME280;42463;52.214;21.238;2024-01-27T07:02:09;100455.24;;;3.91;79.42
56582;BME280;42463;52.214;21.238;2024-01-27T07:04:46;100451.82;;;3.90;79.28
56582;BME280;42463;52.214;21.238;2024-01-27T07:07:23;100458.77;;;3.89;79.58
56582;BME280;42463;52.214;21.238;2024-01-27T07:09:59;100461.40;;;3.89;79.65
56582;BME280;42463;52.214;21.238;2024-01-27T07:12:34;100460.58;;;3.89;79.82
56582;BME280;42463;52.214;21.238;2024-01-27T07:15:12;100463.96;;;3.90;79.83
56582;BME280;42463;52.214;21.238;2024-01-27T07:17:48;100465.86;;;3.90;80.01
56582;BME280;42463;52.214;21.238;2024-01-27T07:20:22;100463.48;;;3.87;80.09
56582;BME280;42463;52.214;21.238;2024-01-27T07:22:57;100467.28;;;3.84;80.21
56582;BME280;42463;52.214;21.238;2024-01-27T07:25:32;100464.11;;;3.79;80.28
56582;BME280;42463;52.214;21.238;2024-01-27T07:28:08;100474.43;;;3.74;80.51
56582;BME280;42463;52.214;21.238;2024-01-27T07:30:43;100473.98;;;3.71;80.61
56582;BME280;42463;52.214;21.238;2024-01-27T07:33:17;100474.23;;;3.70;80.77
56582;BME280;42463;52.214;21.238;2024-01-27T07:35:54;100477.45;;;3.70;81.15
56582;BME280;42463;52.214;21.238;2024-01-27T07:38:28;100477.79;;;3.70;81.11
56582;BME280;42463;52.214;21.238;2024-01-27T07:41:05;100474.64;;;3.70;81.19
56582;BME280;42463;52.214;21.238;2024-01-27T07:43:39;100479.31;;;3.67;81.27
56582;BME280;42463;52.214;21.238;2024-01-27T07:46:15;100481.50;;;3.65;81.46
56582;BME280;42463;52.214;21.238;2024-01-27T07:48:49;100486.77;;;3.63;81.70
56582;BME280;42463;52.214;21.238;2024-01-27T07:51:27;100487.04;;;3.62;81.75
56582;BME280;42463;52.214;21.238;2024-01-27T07:54:02;100480.92;;;3.62;81.97
56582;BME280;42463;52.214;21.238;2024-01-27T07:56:38;100479.36;;;3.63;82.17
56582;BME280;42463;52.214;21.238;2024-01-27T07:59:16;100488.63;;;3.64;82.21
56582;BME280;42463;52.214;21.238;2024-01-27T08:01:51;100492.11;;;3.66;82.29
56582;BME280;42463;52.214;21.238;2024-01-27T08:04:26;100492.60;;;3.68;82.07
56582;BME280;42463;52.214;21.238;2024-01-27T08:07:02;100494.34;;;3.67;82.02
56582;BME280;42463;52.214;21.238;2024-01-27T08:09:42;100496.23;;;3.68;82.10
56582;BME280;42463;52.214;21.238;2024-01-27T08:12:17;100497.72;;;3.72;82.24
56582;BME280;42463;52.214;21.238;2024-01-27T08:14:53;100500.89;;;3.76;81.96
56582;BME280;42463;52.214;21.238;2024-01-27T08:17:27;100503.69;;;3.81;81.97
56582;BME280;42463;52.214;21.238;2024-01-27T08:19:59;100502.83;;;3.81;81.61
56582;BME280;42463;52.214;21.238;2024-01-27T08:22:34;100507.29;;;3.77;81.67
56582;BME280;42463;52.214;21.238;2024-01-27T08:25:12;100506.09;;;3.75;81.95
56582;BME280;42463;52.214;21.238;2024-01-27T08:27:46;100508.06;;;3.74;82.06
56582;BME280;42463;52.214;21.238;2024-01-27T08:30:42;100513.31;;;3.72;82.09
56582;BME280;42463;52.214;21.238;2024-01-27T08:33:16;100516.98;;;3.70;82.15
56582;BME280;42463;52.214;21.238;2024-01-27T08:35:53;100512.16;;;3.70;82.25
56582;BME280;42463;52.214;21.238;2024-01-27T08:38:28;100518.64;;;3.72;82.37
56582;BME280;42463;52.214;21.238;2024-01-27T08:41:03;100519.91;;;3.75;82.26
56582;BME280;42463;52.214;21.238;2024-01-27T08:43:38;100524.38;;;3.77;82.16
56582;BME280;42463;52.214;21.238;2024-01-27T08:46:12;100528.45;;;3.79;82.10
56582;BME280;42463;52.214;21.238;2024-01-27T08:48:49;100534.69;;;3.82;82.18
56582;BME280;42463;52.214;21.238;2024-01-27T08:51:24;100538.29;;;3.84;82.15
56582;BME280;42463;52.214;21.238;2024-01-27T08:54:01;100541.38;;;3.88;81.80
56582;BME280;42463;52.214;21.238;2024-01-27T08:56:41;100544.23;;;3.88;81.69
56582;BME280;42463;52.214;21.238;2024-01-27T08:59:17;100546.83;;;3.88;81.55
56582;BME280;42463;52.214;21.238;2024-01-27T09:01:53;100552.58;;;3.89;81.77
56582;BME280;42463;52.214;21.238;2024-01-27T09:04:29;100553.81;;;3.86;81.62
56582;BME280;42463;52.214;21.238;2024-01-27T09:07:03;100556.78;;;3.84;81.89
56582;BME280;42463;52.214;21.238;2024-01-27T09:09:39;100556.08;;;3.83;82.10
56582;BME280;42463;52.214;21.238;2024-01-27T09:12:13;100558.31;;;3.86;82.14
56582;BME280;42463;52.214;21.238;2024-01-27T09:14:49;100561.52;;;3.90;82.09
56582;BME280;42463;52.214;21.238;2024-01-27T09:17:24;100564.91;;;3.90;81.75
56582;BME280;42463;52.214;21.238;2024-01-27T09:20:01;100568.14;;;3.90;81.85
56582;BME280;42463;52.214;21.238;2024-01-27T09:22:36;100569.95;;;3.88;81.89
56582;BME280;42463;52.214;21.238;2024-01-27T09:25:18;100572.22;;;3.88;82.01
56582;BME280;42463;52.214;21.238;2024-01-27T09:27:54;100574.13;;;3.87;81.87
56582;BME280;42463;52.214;21.238;2024-01-27T09:30:32;100574.08;;;3.87;82.01
56582;BME280;42463;52.214;21.238;2024-01-27T09:33:17;100583.77;;;3.89;82.42
56582;BME280;42463;52.214;21.238;2024-01-27T09:35:58;100587.41;;;3.94;82.28
56582;BME280;42463;52.214;21.238;2024-01-27T09:38:35;100592.41;;;3.96;82.11
56582;BME280;42463;52.214;21.238;2024-01-27T09:41:11;100591.30;;;3.93;82.11
56582;BME280;42463;52.214;21.238;2024-01-27T09:43:53;100588.15;;;3.91;82.20
56582;BME280;42463;52.214;21.238;2024-01-27T09:46:31;100590.42;;;3.93;82.48
56582;BME280;42463;52.214;21.238;2024-01-27T09:49:07;100596.79;;;3.95;82.51
56582;BME280;42463;52.214;21.238;2024-01-27T09:51:48;100603.31;;;4.00;82.44
56582;BME280;42463;52.214;21.238;2024-01-27T09:54:22;100605.49;;;4.02;82.38
56582;BME280;42463;52.214;21.238;2024-01-27T09:57:29;100604.34;;;4.05;82.50
56582;BME280;42463;52.214;21.238;2024-01-27T10:00:08;100604.95;;;4.11;82.71
56582;BME280;42463;52.214;21.238;2024-01-27T10:02:47;100610.27;;;4.20;82.78
56582;BME280;42463;52.214;21.238;2024-01-27T10:05:22;100609.60;;;4.26;82.29
56582;BME280;42463;52.214;21.238;2024-01-27T10:08:00;100612.20;;;4.33;82.45
56582;BME280;42463;52.214;21.238;2024-01-27T10:10:36;100614.59;;;4.38;82.00
56582;BME280;42463;52.214;21.238;2024-01-27T10:13:16;100616.04;;;4.39;81.60
56582;BME280;42463;52.214;21.238;2024-01-27T10:16:00;100614.91;;;4.39;81.52
56582;BME280;42463;52.214;21.238;2024-01-27T10:18:39;100619.29;;;4.41;81.35
56582;BME280;42463;52.214;21.238;2024-01-27T10:21:20;100624.08;;;4.44;81.66
56582;BME280;42463;52.214;21.238;2024-01-27T10:23:57;100633.61;;;4.49;81.50
56582;BME280;42463;52.214;21.238;2024-01-27T10:26:36;100633.23;;;4.49;81.04
56582;BME280;42463;52.214;21.238;2024-01-27T10:29:11;100639.98;;;4.51;81.20
56582;BME280;42463;52.214;21.238;2024-01-27T10:31:45;100644.73;;;4.55;81.16
56582;BME280;42463;52.214;21.238;2024-01-27T10:34:22;100646.63;;;4.57;80.93
56582;BME280;42463;52.214;21.238;2024-01-27T10:36:57;100650.34;;;4.59;81.02
56582;BME280;42463;52.214;21.238;2024-01-27T10:39:33;100654.84;;;4.63;80.59
56582;BME280;42463;52.214;21.238;2024-01-27T10:42:10;100655.53;;;4.67;80.74
56582;BME280;42463;52.214;21.238;2024-01-27T10:44:47;100656.48;;;4.69;80.47
56582;BME280;42463;52.214;21.238;2024-01-27T10:47:23;100657.50;;;4.73;80.53
56582;BME280;42463;52.214;21.238;2024-01-27T10:50:01;100664.70;;;4.77;80.15
56582;BME280;42463;52.214;21.238;2024-01-27T10:52:40;100666.05;;;4.79;80.11
56582;BME280;42463;52.214;21.238;2024-01-27T10:55:18;100665.79;;;4.82;79.69
56582;BME280;42463;52.214;21.238;2024-01-27T10:57:54;100668.94;;;4.84;79.80
56582;BME280;42463;52.214;21.238;2024-01-27T11:00:30;100672.73;;;4.88;79.60
56582;BME280;42463;52.214;21.238;2024-01-27T11:03:08;100679.50;;;4.90;79.35
56582;BME280;42463;52.214;21.238;2024-01-27T11:05:44;100681.28;;;4.91;79.32
56582;BME280;42463;52.214;21.238;2024-01-27T11:08:20;100685.74;;;4.92;79.41
56582;BME280;42463;52.214;21.238;2024-01-27T11:10:55;100688.72;;;4.93;79.07
56582;BME280;42463;52.214;21.238;2024-01-27T11:13:30;100693.48;;;4.95;79.29
56582;BME280;42463;52.214;21.238;2024-01-27T11:16:05;100697.68;;;4.97;79.29
56582;BME280;42463;52.214;21.238;2024-01-27T11:18:37;100700.08;;;4.98;78.96
56582;BME280;42463;52.214;21.238;2024-01-27T11:21:14;100705.05;;;4.98;78.77
56582;BME280;42463;52.214;21.238;2024-01-27T11:23:48;100712.61;;;4.99;78.90
56582;BME280;42463;52.214;21.238;2024-01-27T11:26:24;100719.02;;;4.98;78.64
56582;BME280;42463;52.214;21.238;2024-01-27T11:29:08;100724.73;;;4.97;78.62
56582;BME280;42463;52.214;21.238;2024-01-27T11:31:51;100729.99;;;4.93;78.56
56582;BME280;42463;52.214;21.238;2024-01-27T11:34:23;100731.65;;;4.92;78.94
56582;BME280;42463;52.214;21.238;2024-01-27T11:36:56;100736.32;;;4.95;78.79
56582;BME280;42463;52.214;21.238;2024-01-27T11:39:34;100741.11;;;4.96;78.88
56582;BME280;42463;52.214;21.238;2024-01-27T11:42:08;100743.21;;;4.98;78.84
56582;BME280;42463;52.214;21.238;2024-01-27T11:44:43;100746.73;;;4.96;78.56
56582;BME280;42463;52.214;21.238;2024-01-27T11:47:25;100751.08;;;4.97;78.83
56582;BME280;42463;52.214;21.238;2024-01-27T11:49:58;100758.23;;;4.99;78.94
56582;BME280;42463;52.214;21.238;2024-01-27T11:52:31;100761.58;;;5.00;78.72
56582;BME280;42463;52.214;21.238;2024-01-27T11:55:05;100766.13;;;5.01;78.72
56582;BME280;42463;52.214;21.238;2024-01-27T11:57:39;100774.77;;;5.01;78.85
56582;BME280;42463;52.214;21.238;2024-01-27T12:00:14;100778.41;;;5.03;78.70
56582;BME280;42463;52.214;21.238;2024-01-27T12:02:51;100784.62;;;5.03;78.56
56582;BME280;42463;52.214;21.238;2024-01-27T12:05:24;100790.20;;;5.03;78.23
56582;BME280;42463;52.214;21.238;2024-01-27T12:07:59;100796.33;;;5.01;77.93
56582;BME280;42463;52.214;21.238;2024-01-27T12:10:32;100798.64;;;5.00;77.99
56582;BME280;42463;52.214;21.238;2024-01-27T12:13:05;100799.64;;;4.99;77.88
56582;BME280;42463;52.214;21.238;2024-01-27T12:15:38;100806.00;;;4.99;77.69
56582;BME280;42463;52.214;21.238;2024-01-27T12:18:11;100806.88;;;4.96;77.47
56582;BME280;42463;52.214;21.238;2024-01-27T12:20:46;100814.00;;;4.94;77.39
56582;BME280;42463;52.214;21.238;2024-01-27T12:23:18;100818.75;;;4.92;77.24
56582;BME280;42463;52.214;21.238;2024-01-27T12:25:57;100824.84;;;4.88;77.25
56582;BME280;42463;52.214;21.238;2024-01-27T12:28:30;100831.65;;;4.87;77.25
56582;BME280;42463;52.214;21.238;2024-01-27T12:31:05;100836.25;;;4.86;77.23
56582;BME280;42463;52.214;21.238;2024-01-27T12:33:38;100843.27;;;4.87;77.12
56582;BME280;42463;52.214;21.238;2024-01-27T12:36:14;100846.50;;;4.87;77.04
56582;BME280;42463;52.214;21.238;2024-01-27T12:38:57;100854.73;;;4.87;76.81
56582;BME280;42463;52.214;21.238;2024-01-27T12:41:32;100861.31;;;4.86;76.68
56582;BME280;42463;52.214;21.238;2024-01-27T12:44:08;100869.98;;;4.83;76.53
56582;BME280;42463;52.214;21.238;2024-01-27T12:46:45;100877.55;;;4.80;76.84
56582;BME280;42463;52.214;21.238;2024-01-27T12:49:20;100886.58;;;4.79;76.88
56582;BME280;42463;52.214;21.238;2024-01-27T12:51:57;100893.56;;;4.79;77.09
56582;BME280;42463;52.214;21.238;2024-01-27T12:54:32;100903.65;;;4.78;77.18
56582;BME280;42463;52.214;21.238;2024-01-27T12:57:07;100909.35;;;4.78;77.51
56582;BME280;42463;52.214;21.238;2024-01-27T12:59:42;100912.70;;;4.80;77.74
56582;BME280;42463;52.214;21.238;2024-01-27T13:02:18;100918.95;;;4.81;77.67
56582;BME280;42463;52.214;21.238;2024-01-27T13:04:53;100923.88;;;4.82;77.70
56582;BME280;42463;52.214;21.238;2024-01-27T13:07:37;100930.24;;;4.81;77.61
56582;BME280;42463;52.214;21.238;2024-01-27T13:10:13;100936.11;;;4.80;77.47
56582;BME280;42463;52.214;21.238;2024-01-27T13:12:47;100937.31;;;4.81;77.48
56582;BME280;42463;52.214;21.238;2024-01-27T13:15:25;100936.02;;;4.80;77.45
56582;BME280;42463;52.214;21.238;2024-01-27T13:18:05;100937.11;;;4.81;77.44
56582;BME280;42463;52.214;21.238;2024-01-27T13:20:40;100942.90;;;4.82;77.20
56582;BME280;42463;52.214;21.238;2024-01-27T13:23:15;100947.36;;;4.80;77.11
56582;BME280;42463;52.214;21.238;2024-01-27T13:25:50;100953.85;;;4.80;76.91
56582;BME280;42463;52.214;21.238;2024-01-27T13:28:26;100955.29;;;4.80;77.04
56582;BME280;42463;52.214;21.238;2024-01-27T13:31:05;100964.02;;;4.80;76.81
56582;BME280;42463;52.214;21.238;2024-01-27T13:33:40;100970.77;;;4.82;76.82
56582;BME280;42463;52.214;21.238;2024-01-27T13:36:15;100970.31;;;4.83;76.76
56582;BME280;42463;52.214;21.238;2024-01-27T13:38:53;100976.81;;;4.84;76.81